ADDS METAR Data INFO
IDs: Format: Raw Decoded Include TAF

Data at: 1842 UTC 16 Dec 2017

KCCR 161753Z 36016G25KT 10SM CLR 17/M04 A2997 RMK AO2 PK WND 35030/1739 SLP136 T01671039 10167 20056 50006
KCCR 161653Z 34016KT 10SM CLR 14/M03 A2998 RMK AO2 SLP140 T01441033
KCCR 161553Z 34013KT 10SM CLR 11/M02 A2996 RMK AO2 SLP130 T01111022
KCCR 161453Z 32009KT 10SM CLR 11/M02 A2996 RMK AO2 SLP130 T01061017 56007
KCCR 161353Z AUTO 33012G17KT 10SM CLR 12/01 A2996 RMK AO2 SLP130 T01170006
KCCR 161253Z AUTO 33009KT 10SM CLR 09/04 A2996 RMK AO2 SLP132 T00940039
KCCR 161153Z AUTO 11003KT 4SM BR CLR 06/04 A2998 RMK AO2 SLP136 T00560039 10100 20050 56007
KCCR 161053Z AUTO 00000KT 4SM BR CLR 07/06 A2998 RMK AO2 SLP137 T00720056
KCCR 160953Z AUTO 00000KT 4SM BR CLR 07/06 A2999 RMK AO2 SLP141 T00670056
KCCR 160853Z AUTO 00000KT 4SM BR CLR 06/04 A3000 RMK AO2 SLP144 T00610044 58016
KCCR 160753Z AUTO 23004KT 4SM BR CLR 08/06 A3003 RMK AO2 SLP153 T00780056 401610017
KCCR 160653Z AUTO 27006KT 5SM HZ CLR 09/06 A3003 RMK AO2 SLP156 T00890061
KCCR 160553Z 00000KT 5SM HZ CLR 10/07 A3005 RMK AO2 SLP160 T01000067 10144 20100 51003
KCCR 160453Z 00000KT 5SM HZ CLR 11/07 A3005 RMK AO2 SLP160 T01060072
KCCR 160353Z 32004KT 5SM HZ CLR 11/07 A3006 RMK AO2 PRESRR SLP165 T01060072
KCCR 160253Z 00000KT 6SM HZ CLR 12/08 A3004 RMK AO2 SLP157 T01220078 58008
KCCR 160153Z 12003KT 6SM HZ CLR 12/07 A3005 RMK AO2 SLP161 T01220072
KCCR 160053Z 00000KT 6SM HZ CLR 14/07 A3006 RMK AO2 SLP165 T01390072
KCCR 152353Z 35003KT 6SM HZ CLR 14/08 A3006 RMK AO2 SLP165 T01440078 10161 20094 56022
KCCR 152253Z 35006KT 6SM HZ CLR 15/08 A3007 RMK AO2 SLP168 T01500078
KCCR 152153Z 00000KT 6SM HZ CLR 16/07 A3008 RMK AO2 SLP172 T01610072
KCCR 152053Z VRB04KT 6SM HZ CLR 16/07 A3012 RMK AO2 SLP187 T01560072 58027
KCCR 151953Z 34005KT 5SM HZ CLR 13/07 A3016 RMK AO2 SLP198 T01330072
KCCR 151853Z 35004KT 4SM HZ CLR 12/06 A3019 RMK AO2 SLP209 T01170061
KCCR 151753Z 00000KT 4SM HZ CLR 09/05 A3021 RMK AO2 SLP214 T00940050 10094 20017 50005
KCCR 151653Z 00000KT 4SM HZ CLR 06/03 A3021 RMK AO2 SLP217 T00610033
KCCR 151553Z 00000KT 4SM BR CLR 04/02 A3020 RMK AO2 SLP211 T00390017
KCCR 151453Z 15003KT 5SM BR CLR 02/01 A3019 RMK AO2 SLP209 T00220006 57004
KCCR 151353Z 00000KT 5SM BR CLR 03/01 A3020 RMK AO2 SLP211 T00330011
KCCR 151253Z 00000KT 5SM BR CLR 03/01 A3020 RMK AO2 SLP211 T00280011
KCCR 151153Z 00000KT 5SM BR CLR 03/01 A3020 RMK AO2 SLP213 T00280011 10072 20028 51002
KCCR 151053Z 00000KT 5SM BR CLR 03/01 A3020 RMK AO2 SLP212 T00330011
KCCR 150953Z 00000KT 6SM BR CLR 04/02 A3020 RMK AO2 SLP212 T00390017
KCCR 150853Z 00000KT 6SM BR CLR 04/02 A3020 RMK AO2 SLP211 T00440022 51005
KCCR 150753Z 00000KT 6SM BR CLR 05/03 A3019 RMK AO2 SLP210 T00500028 401940017
KCCR 150653Z 00000KT 5SM HZ CLR 06/03 A3019 RMK AO2 SLP209 T00610033